Time;durP1;ratioP1;P1;durP2;ratioP2;P2;SDS_P1;SDS_P2;PMS_P1;PMS_P2;Temp;Humidity;BMP_temperature;BMP_pressure;BME280_temperature;BME280_humidity;BME280_pressure;Samples;Min_cycle;Max_cycle;Signal;HPM_P1;HPM_P2
2021/10/22 00:00:53;;;;;;;26.95;2.83;;;;;;;4.18;100.00;98971.69;5053233;28;20084;-69
2021/10/22 00:03:18;;;;;;;12.80;2.83;;;;;;;4.17;100.00;98969.06;5047884;28;20017;-68
2021/10/22 00:05:44;;;;;;;21.40;2.65;;;;;;;4.21;100.00;98969.13;5047958;28;20088;-68
2021/10/22 00:08:09;;;;;;;17.17;3.03;;;;;;;4.18;100.00;98981.28;5055880;28;20021;-68
2021/10/22 00:10:34;;;;;;;8.65;2.70;;;;;;;4.26;99.67;98983.09;5059556;28;20024;-68
2021/10/22 00:13:00;;;;;;;4.50;2.65;;;;;;;4.29;99.87;98985.72;5046608;28;20028;-68
2021/10/22 00:15:26;;;;;;;5.07;2.63;;;;;;;4.29;99.35;98990.94;5045460;28;20025;-68
2021/10/22 00:17:52;;;;;;;16.80;3.45;;;;;;;4.20;98.13;98985.63;5047019;28;20151;-68
2021/10/22 00:20:17;;;;;;;12.85;3.00;;;;;;;4.16;98.58;98991.66;5058354;28;20032;-68
2021/10/22 00:22:43;;;;;;;11.05;2.58;;;;;;;4.02;98.49;98990.63;5047567;28;20021;-68
2021/10/22 00:25:09;;;;;;;15.23;2.65;;;;;;;4.01;98.45;99001.91;5047512;28;20217;-68
2021/10/22 00:27:35;;;;;;;22.67;2.90;;;;;;;3.91;98.51;98997.44;5051766;28;20021;-68
2021/10/22 00:30:00;;;;;;;9.05;2.30;;;;;;;3.88;98.12;98986.97;5049518;28;20213;-68
2021/10/22 00:32:26;;;;;;;5.45;2.72;;;;;;;3.92;98.08;98983.56;5045077;28;20060;-68
2021/10/22 00:34:52;;;;;;;4.47;2.58;;;;;;;3.91;98.07;98997.44;5046237;28;20021;-69
2021/10/22 00:37:17;;;;;;;9.18;2.20;;;;;;;3.90;97.83;98993.06;5055824;28;20036;-69
2021/10/22 00:39:43;;;;;;;13.23;2.63;;;;;;;3.83;97.70;99006.00;5061939;28;20040;-69
2021/10/22 00:42:10;;;;;;;5.25;2.53;;;;;;;3.89;97.65;98993.94;5064839;28;20298;-69
2021/10/22 00:44:35;;;;;;;15.90;3.58;;;;;;;3.89;98.09;99004.34;5065085;28;20407;-69
2021/10/22 00:47:00;;;;;;;4.50;2.63;;;;;;;3.64;97.46;99001.41;5064597;28;20021;-69
2021/10/22 00:49:26;;;;;;;9.88;3.45;;;;;;;3.63;98.64;99010.94;5064750;28;20316;-69
2021/10/22 00:51:52;;;;;;;8.65;3.72;;;;;;;3.74;98.65;98988.53;5064660;28;20028;-69
2021/10/22 00:54:18;;;;;;;27.02;3.38;;;;;;;3.51;98.08;98989.94;5064658;28;20024;-69
2021/10/22 00:56:44;;;;;;;15.43;3.00;;;;;;;3.55;97.85;99001.28;5061722;28;20059;-69
2021/10/22 00:59:10;;;;;;;5.95;2.90;;;;;;;3.65;98.70;99011.84;5058517;28;20016;-69
2021/10/22 01:01:39;;;;;;;17.17;3.60;;;;;;;3.48;97.79;99005.50;5049310;28;20044;-69
2021/10/22 01:04:06;;;;;;;10.10;3.65;;;;;;;3.54;97.95;99010.81;5050325;28;20017;-68
2021/10/22 01:06:34;;;;;;;9.02;3.38;;;;;;;3.52;98.00;99015.13;5054572;28;20017;-68
2021/10/22 01:09:00;;;;;;;5.68;3.28;;;;;;;3.58;98.37;99015.19;5044419;28;20039;-68
2021/10/22 01:11:25;;;;;;;14.20;2.72;;;;;;;3.42;97.70;99015.81;5044378;28;20021;-68
2021/10/22 01:13:51;;;;;;;8.63;3.72;;;;;;;3.49;98.02;99012.50;5044390;28;20339;-68
2021/10/22 01:16:17;;;;;;;9.77;2.67;;;;;;;3.43;96.85;99022.81;5043998;28;20075;-68
2021/10/22 01:18:42;;;;;;;4.70;2.58;;;;;;;3.40;96.88;99017.56;5044962;28;20052;-68
2021/10/22 01:21:07;;;;;;;10.38;2.80;;;;;;;3.39;96.87;99018.38;5056920;28;20017;-68
2021/10/22 01:23:33;;;;;;;10.73;2.90;;;;;;;3.35;96.87;99028.75;5054890;28;20023;-68
2021/10/22 01:25:59;;;;;;;6.00;2.67;;;;;;;3.31;97.38;99027.81;5061001;28;20021;-68
2021/10/22 01:28:25;;;;;;;7.45;2.78;;;;;;;3.36;96.83;99022.69;5060655;28;20059;-68
2021/10/22 01:30:51;;;;;;;5.03;2.80;;;;;;;3.33;96.78;99025.25;5046324;28;20308;-68
2021/10/22 01:33:18;;;;;;;6.07;3.20;;;;;;;3.26;96.77;99024.25;5052458;28;20023;-68
2021/10/22 01:35:48;;;;;;;7.07;2.85;;;;;;;3.30;97.16;99020.88;5050745;28;20021;-68
2021/10/22 01:38:15;;;;;;;22.83;2.97;;;;;;;3.12;97.50;99009.28;5046451;28;20084;-68
2021/10/22 01:40:42;;;;;;;12.93;2.50;;;;;;;3.12;97.46;99014.50;5049546;28;20035;-68
2021/10/22 01:43:07;;;;;;;10.27;3.03;;;;;;;3.09;97.44;99028.31;5048048;28;20033;-68
2021/10/22 01:45:33;;;;;;;10.73;3.20;;;;;;;2.99;96.75;99028.16;5043920;28;20021;-68
2021/10/22 01:47:59;;;;;;;23.58;3.40;;;;;;;2.99;96.89;99023.84;5045612;28;20025;-68
2021/10/22 01:50:24;;;;;;;5.55;3.17;;;;;;;2.90;97.11;99026.28;5050935;28;20024;-68
2021/10/22 01:52:50;;;;;;;6.38;2.78;;;;;;;2.92;97.46;99032.38;5054471;28;20378;-68
2021/10/22 01:55:15;;;;;;;5.80;2.90;;;;;;;2.87;97.29;99027.94;5046114;28;20029;-68
2021/10/22 01:57:40;;;;;;;7.72;2.80;;;;;;;2.81;97.73;99059.91;5053190;28;20025;-68
2021/10/22 02:00:07;;;;;;;7.97;2.63;;;;;;;2.73;97.61;99032.91;5055266;28;20024;-68
2021/10/22 02:02:32;;;;;;;7.13;2.75;;;;;;;2.68;97.55;99021.56;5062409;28;20024;-68
2021/10/22 02:04:58;;;;;;;5.00;2.60;;;;;;;2.74;97.66;99036.38;5064392;28;20092;-68
2021/10/22 02:07:23;;;;;;;5.55;3.05;;;;;;;2.82;97.69;99025.28;5054059;28;20017;-68
2021/10/22 02:09:49;;;;;;;6.43;2.88;;;;;;;2.64;96.91;99035.34;5064577;28;20020;-68
2021/10/22 02:12:14;;;;;;;5.05;2.58;;;;;;;2.50;96.95;99031.59;5052073;28;20017;-68
2021/10/22 02:14:40;;;;;;;5.32;3.20;;;;;;;2.17;98.07;99031.84;5063262;28;20095;-68
2021/10/22 02:17:05;;;;;;;5.63;3.03;;;;;;;2.32;98.69;99035.59;5053415;28;20098;-68
2021/10/22 02:19:31;;;;;;;21.30;3.00;;;;;;;2.33;98.37;99024.34;5060767;28;20021;-68
2021/10/22 02:21:56;;;;;;;16.00;3.63;;;;;;;2.23;98.65;99021.59;5054142;28;20021;-68
2021/10/22 02:24:22;;;;;;;9.13;3.60;;;;;;;2.12;99.19;99019.63;5051788;28;20014;-68
2021/10/22 02:26:47;;;;;;;13.73;4.65;;;;;;;2.25;99.51;99025.06;5059606;28;20021;-68
2021/10/22 02:29:13;;;;;;;16.00;4.60;;;;;;;2.25;99.50;99019.03;5064213;28;20017;-68
2021/10/22 02:31:39;;;;;;;15.43;5.10;;;;;;;2.32;99.81;99031.28;5050531;28;20056;-68
2021/10/22 02:34:04;;;;;;;9.13;4.32;;;;;;;2.41;99.71;99033.16;5058194;28;20215;-68
2021/10/22 02:36:29;;;;;;;14.27;3.83;;;;;;;2.34;99.50;99029.56;5056287;28;20305;-68
2021/10/22 02:38:55;;;;;;;6.70;3.65;;;;;;;2.48;98.93;99037.63;5062506;28;20029;-68
2021/10/22 02:41:20;;;;;;;14.77;4.15;;;;;;;2.38;98.49;99034.00;5063675;28;20251;-68
2021/10/22 02:43:47;;;;;;;7.18;3.65;;;;;;;2.28;98.31;99034.66;5055866;28;20028;-68
2021/10/22 02:46:13;;;;;;;6.80;3.30;;;;;;;2.36;98.14;99042.56;5060956;28;20213;-68
2021/10/22 02:48:39;;;;;;;8.00;4.22;;;;;;;2.43;97.88;99050.53;5049757;28;20013;-68
2021/10/22 02:51:04;;;;;;;12.23;4.28;;;;;;;2.44;97.60;99051.41;5061010;28;20171;-68
2021/10/22 02:53:29;;;;;;;7.05;3.70;;;;;;;2.34;97.51;99041.69;5050745;28;20033;-68
2021/10/22 02:55:55;;;;;;;9.90;3.80;;;;;;;2.25;97.14;99045.84;5066915;28;20031;-68
2021/10/22 02:58:20;;;;;;;7.50;3.60;;;;;;;2.27;97.24;99048.47;5066786;28;20021;-68
2021/10/22 03:00:45;;;;;;;8.32;3.58;;;;;;;2.10;97.94;99044.69;5066879;28;20406;-68
2021/10/22 03:03:11;;;;;;;6.93;3.55;;;;;;;2.20;97.99;99054.41;5066694;28;20021;-68
2021/10/22 03:05:36;;;;;;;7.03;3.50;;;;;;;2.26;97.99;99057.13;5066745;28;20071;-68
2021/10/22 03:08:02;;;;;;;12.70;4.85;;;;;;;2.26;97.99;99067.50;5066952;28;20021;-68
2021/10/22 03:10:27;;;;;;;8.48;4.32;;;;;;;2.19;97.18;99065.66;5066591;28;20021;-68
2021/10/22 03:12:53;;;;;;;9.80;5.13;;;;;;;1.90;96.97;99062.44;5066590;28;20017;-68
2021/10/22 03:15:19;;;;;;;9.52;4.45;;;;;;;1.97;96.79;99063.44;5066515;28;20316;-68
2021/10/22 03:17:45;;;;;;;8.32;4.10;;;;;;;1.84;97.53;99066.63;5063999;28;20041;-68
2021/10/22 03:20:11;;;;;;;8.07;4.63;;;;;;;1.97;97.98;99063.44;5054190;28;20371;-68
2021/10/22 03:22:37;;;;;;;11.10;4.63;;;;;;;1.94;98.13;99059.09;5058040;28;20036;-68
2021/10/22 03:25:04;;;;;;;10.00;5.15;;;;;;;1.88;98.56;99065.84;5063124;28;20043;-68
2021/10/22 03:27:29;;;;;;;9.18;4.57;;;;;;;1.96;98.86;99061.66;5055267;28;20271;-68
2021/10/22 03:29:55;;;;;;;10.07;4.85;;;;;;;2.07;98.71;99067.97;5052840;28;20017;-68
2021/10/22 03:32:20;;;;;;;12.35;4.65;;;;;;;2.10;99.00;99060.25;5048546;28;20021;-68
2021/10/22 03:34:46;;;;;;;14.20;5.50;;;;;;;2.24;98.33;99064.88;5057495;28;20088;-68
2021/10/22 03:37:12;;;;;;;11.00;5.25;;;;;;;2.28;98.34;99063.25;5062118;28;20020;-68
2021/10/22 03:39:38;;;;;;;13.57;5.45;;;;;;;2.45;98.08;99063.53;5051884;28;20013;-68
2021/10/22 03:42:04;;;;;;;14.27;5.03;;;;;;;2.55;98.80;99065.47;5064426;28;20093;-68
2021/10/22 03:44:30;;;;;;;17.40;7.03;;;;;;;2.67;99.07;99071.78;5062796;28;20260;-68
2021/10/22 03:46:55;;;;;;;13.13;6.70;;;;;;;2.83;98.74;99063.41;5062658;28;20032;-68
2021/10/22 03:49:21;;;;;;;17.13;6.15;;;;;;;2.80;98.87;99063.34;5057060;28;20304;-68
2021/10/22 03:51:47;;;;;;;15.27;7.10;;;;;;;2.94;99.07;99072.25;5057308;28;20025;-68
2021/10/22 03:54:12;;;;;;;26.80;8.27;;;;;;;3.02;99.87;99075.88;5053555;28;20024;-68
2021/10/22 03:56:37;;;;;;;60.13;10.73;;;;;;;3.05;100.00;99075.06;5055898;28;20025;-68
2021/10/22 03:59:03;;;;;;;23.63;8.50;;;;;;;3.25;99.76;99079.75;5055469;28;20088;-68
2021/10/22 04:01:28;;;;;;;27.42;8.02;;;;;;;3.32;99.91;99075.53;5051402;28;20025;-68
2021/10/22 04:03:54;;;;;;;43.22;10.82;;;;;;;3.35;99.64;99081.63;5047937;28;20324;-68
2021/10/22 04:06:19;;;;;;;25.40;8.65;;;;;;;3.46;99.56;99080.09;5058367;28;20029;-68
2021/10/22 04:08:45;;;;;;;32.30;10.43;;;;;;;3.53;99.58;99081.94;5065532;28;20089;-68
2021/10/22 04:11:10;;;;;;;33.53;11.05;;;;;;;3.62;100.00;99091.59;5062698;28;20135;-68
2021/10/22 04:13:35;;;;;;;27.05;9.90;;;;;;;3.75;99.85;99085.72;5046394;28;20021;-68
2021/10/22 04:16:01;;;;;;;30.90;10.05;;;;;;;3.89;100.00;99090.28;5046602;28;20108;-68
2021/10/22 04:18:29;;;;;;;41.78;10.23;;;;;;;3.94;100.00;99083.41;5046306;28;20060;-68
2021/10/22 04:20:55;;;;;;;60.90;11.27;;;;;;;4.04;100.00;99087.00;5045083;28;20028;-68
2021/10/22 04:23:21;;;;;;;40.92;10.90;;;;;;;4.11;100.00;99074.06;5043620;28;20025;-68
2021/10/22 04:25:47;;;;;;;24.42;10.20;;;;;;;4.25;100.00;99085.53;5044352;28;20021;-68
2021/10/22 04:28:12;;;;;;;30.17;10.32;;;;;;;4.42;100.00;99101.38;5044249;28;20028;-68
2021/10/22 04:30:39;;;;;;;34.75;12.10;;;;;;;4.55;100.00;99107.66;5044267;28;20217;-68
2021/10/22 04:33:05;;;;;;;28.75;10.98;;;;;;;4.63;100.00;99119.00;5044224;28;20025;-68
2021/10/22 04:35:31;;;;;;;56.63;11.35;;;;;;;4.66;100.00;99127.75;5049925;28;20025;-68
2021/10/22 04:40:32;;;;;;;65.78;9.52;;;;;;;4.72;100.00;99132.16;5054847;28;20092;-68
2021/10/22 04:43:01;;;;;;;46.00;8.77;;;;;;;4.82;100.00;99134.00;5047341;28;20259;-68
2021/10/22 04:45:27;;;;;;;20.15;8.57;;;;;;;4.87;100.00;99137.56;5043949;28;20096;-68
2021/10/22 04:47:53;;;;;;;25.27;9.23;;;;;;;4.89;100.00;99141.03;5043791;28;20033;-68
2021/10/22 04:50:18;;;;;;;18.85;8.02;;;;;;;4.89;100.00;99135.81;5044596;28;20085;-68
2021/10/22 04:52:44;;;;;;;42.35;9.15;;;;;;;4.91;100.00;99144.56;5044791;28;20025;-68
2021/10/22 04:55:10;;;;;;;32.28;10.13;;;;;;;4.91;100.00;99140.22;5044676;28;20377;-68
2021/10/22 04:57:37;;;;;;;23.08;8.68;;;;;;;5.01;100.00;99146.41;5044634;28;20348;-68
2021/10/22 05:00:06;;;;;;;33.15;9.13;;;;;;;4.99;100.00;99145.50;5044501;28;20312;-68
2021/10/22 05:02:31;;;;;;;67.43;9.82;;;;;;;5.04;100.00;99146.44;5044439;28;20089;-68
2021/10/22 05:04:57;;;;;;;21.77;9.48;;;;;;;5.10;99.98;99146.50;5044495;28;20025;-68
2021/10/22 05:07:23;;;;;;;40.80;10.75;;;;;;;5.16;100.00;99147.41;5044478;28;20025;-68
2021/10/22 05:09:48;;;;;;;35.83;9.85;;;;;;;5.07;99.97;99156.91;5044379;28;20213;-68
2021/10/22 05:12:13;;;;;;;35.10;9.80;;;;;;;5.17;100.00;99163.97;5044433;28;20029;-68
2021/10/22 05:14:40;;;;;;;27.48;10.05;;;;;;;5.17;99.97;99169.19;5044352;28;20029;-68
2021/10/22 05:17:05;;;;;;;42.28;12.07;;;;;;;5.16;99.61;99167.44;5044169;28;20087;-68
2021/10/22 05:19:31;;;;;;;46.40;12.85;;;;;;;5.18;99.59;99166.59;5044222;28;20252;-68
2021/10/22 05:21:57;;;;;;;32.13;13.13;;;;;;;5.22;99.25;99167.50;5044253;28;20028;-68
2021/10/22 05:24:23;;;;;;;38.55;13.05;;;;;;;5.21;99.55;99152.69;5044206;28;20228;-68
2021/10/22 05:26:48;;;;;;;33.30;13.15;;;;;;;5.21;99.66;99144.84;5044276;28;20084;-68
2021/10/22 05:29:13;;;;;;;31.90;12.18;;;;;;;5.27;99.65;99139.69;5044168;28;20048;-68
2021/10/22 05:31:39;;;;;;;26.48;11.68;;;;;;;5.26;99.43;99145.78;5044132;28;20029;-68
2021/10/22 05:34:04;;;;;;;21.20;9.73;;;;;;;5.26;98.88;99148.41;5043309;28;20442;-68
2021/10/22 05:36:30;;;;;;;26.35;9.50;;;;;;;5.20;99.11;99150.94;5044066;28;20033;-68
2021/10/22 05:38:55;;;;;;;26.52;10.35;;;;;;;5.18;99.13;99144.81;5042274;28;20048;-68
2021/10/22 05:41:20;;;;;;;51.55;10.90;;;;;;;5.10;98.94;99146.50;5044010;28;20048;-68
2021/10/22 05:43:47;;;;;;;35.20;11.20;;;;;;;5.13;99.43;99143.91;5044017;28;20045;-68
2021/10/22 05:46:12;;;;;;;26.65;10.77;;;;;;;5.19;99.16;99151.81;5044020;28;20056;-68
2021/10/22 05:48:38;;;;;;;27.08;11.82;;;;;;;5.23;99.07;99149.25;5043953;28;20083;-68
2021/10/22 05:51:03;;;;;;;21.67;9.85;;;;;;;5.21;98.94;99150.06;5043900;28;20030;-68
2021/10/22 05:53:29;;;;;;;20.20;9.55;;;;;;;5.11;98.83;99158.69;5043881;28;20025;-68
2021/10/22 05:55:54;;;;;;;21.63;8.73;;;;;;;5.15;98.65;99165.66;5043866;28;20029;-68
2021/10/22 05:58:21;;;;;;;19.58;9.23;;;;;;;5.15;98.09;99170.88;5043734;28;20029;-68
2021/10/22 06:00:47;;;;;;;25.15;8.32;;;;;;;5.12;98.62;99170.88;5043846;28;20217;-68
2021/10/22 06:03:14;;;;;;;18.42;7.65;;;;;;;5.21;98.49;99176.16;5043711;28;20021;-68
2021/10/22 06:05:40;;;;;;;27.35;8.35;;;;;;;5.25;98.33;99172.75;5043763;28;20052;-68
2021/10/22 06:08:07;;;;;;;17.85;8.68;;;;;;;5.10;98.45;99172.59;5043754;28;20049;-68
2021/10/22 06:10:33;;;;;;;30.83;8.95;;;;;;;5.11;98.63;99171.72;5042538;28;20092;-68
2021/10/22 06:12:58;;;;;;;21.27;8.77;;;;;;;5.02;98.64;99169.00;5043678;28;20022;-68
2021/10/22 06:15:23;;;;;;;18.55;8.68;;;;;;;5.13;98.54;99167.41;5043701;28;20325;-68
2021/10/22 06:17:51;;;;;;;25.30;10.15;;;;;;;5.03;98.80;99173.38;5043537;28;20053;-68
2021/10/22 06:20:26;;;;;;;21.63;9.52;;;;;;;5.15;98.93;99186.53;5043805;28;20313;-68
2021/10/22 06:23:53;;;;;;;20.95;8.30;;;;;;;5.26;98.38;99200.59;5043700;28;20025;-68
2021/10/22 06:25:46;;;;;;;23.15;9.43;;;;;;;5.20;97.87;99204.03;5043458;28;20089;-68
2021/10/22 06:28:12;;;;;;;19.05;7.63;;;;;;;5.15;97.12;99213.53;5043577;28;20041;-68
2021/10/22 06:30:37;;;;;;;18.20;7.63;;;;;;;5.11;97.73;99223.91;5043529;28;20202;-68
2021/10/22 06:33:03;;;;;;;20.98;7.70;;;;;;;5.13;97.09;99225.69;5043511;28;20321;-68
2021/10/22 06:35:29;;;;;;;29.50;7.15;;;;;;;5.06;97.44;99228.22;5043474;28;20052;-68
2021/10/22 06:37:55;;;;;;;10.73;5.97;;;;;;;5.09;97.46;99238.69;5043377;28;20025;-68
2021/10/22 06:40:22;;;;;;;15.75;6.13;;;;;;;5.06;97.28;99246.47;5043435;28;20032;-68
2021/10/22 06:42:48;;;;;;;16.33;6.10;;;;;;;5.04;97.45;99266.44;5043401;28;20021;-68
2021/10/22 06:45:14;;;;;;;22.30;6.10;;;;;;;5.06;98.63;99244.72;5045053;28;20028;-68
2021/10/22 06:47:40;;;;;;;21.35;6.70;;;;;;;5.07;98.14;99266.47;5047112;28;20209;-68
2021/10/22 06:50:06;;;;;;;15.00;6.28;;;;;;;5.13;98.30;99282.22;5047117;28;20025;-68
2021/10/22 06:52:32;;;;;;;14.27;6.32;;;;;;;5.19;98.37;99279.69;5046990;28;20220;-68
2021/10/22 06:54:58;;;;;;;15.63;6.72;;;;;;;5.22;98.16;99284.94;5046972;28;20060;-68
2021/10/22 06:57:24;;;;;;;18.40;6.65;;;;;;;5.19;98.15;99293.56;5046947;28;20024;-68
2021/10/22 06:59:49;;;;;;;16.17;7.13;;;;;;;5.20;98.82;99310.13;5046809;28;20025;-68
2021/10/22 07:02:15;;;;;;;21.38;8.27;;;;;;;5.28;98.58;99325.00;5046806;28;20170;-68
2021/10/22 07:04:48;;;;;;;22.13;8.02;;;;;;;5.35;98.44;99325.97;5046828;28;20348;-68
2021/10/22 07:07:14;;;;;;;24.70;7.53;;;;;;;5.35;97.85;99326.84;5046857;28;20033;-68
2021/10/22 07:09:40;;;;;;;22.58;6.78;;;;;;;5.30;97.96;99333.75;5046742;28;20094;-68
2021/10/22 07:12:06;;;;;;;17.70;6.93;;;;;;;5.43;98.71;99339.97;5046682;28;20298;-68
2021/10/22 07:14:34;;;;;;;16.48;6.60;;;;;;;5.47;98.70;99347.88;5046615;28;20052;-68
2021/10/22 07:17:00;;;;;;;17.65;7.43;;;;;;;5.51;98.36;99351.41;5046453;28;20352;-68
2021/10/22 07:19:25;;;;;;;26.98;7.13;;;;;;;5.57;98.46;99354.09;5046454;28;20029;-68
2021/10/22 07:21:52;;;;;;;25.65;7.85;;;;;;;5.60;98.29;99356.75;5046481;28;20032;-68
2021/10/22 07:24:20;;;;;;;18.33;7.82;;;;;;;5.75;97.80;99362.13;5046510;28;20025;-68
2021/10/22 07:26:46;;;;;;;17.98;7.35;;;;;;;5.82;97.35;99366.59;5046496;28;20216;-68
2021/10/22 07:29:11;;;;;;;19.65;7.57;;;;;;;5.84;97.56;99370.09;5045227;28;20026;-68
2021/10/22 07:31:37;;;;;;;21.55;7.18;;;;;;;6.07;96.86;99359.03;5046321;28;20052;-68
2021/10/22 07:34:02;;;;;;;17.45;6.72;;;;;;;6.42;96.29;99419.47;5046285;28;20028;-68
2021/10/22 07:36:28;;;;;;;22.50;8.43;;;;;;;6.50;95.91;99349.84;5046229;28;20025;-68
2021/10/22 07:38:54;;;;;;;25.05;7.78;;;;;;;6.60;95.17;99362.13;5046119;28;20025;-68
2021/10/22 07:41:20;;;;;;;20.20;7.63;;;;;;;6.60;95.09;99355.16;5046113;28;20082;-68
2021/10/22 07:43:45;;;;;;;25.17;8.98;;;;;;;6.54;95.01;99367.28;5046164;28;20021;-68
2021/10/22 07:46:12;;;;;;;19.23;7.25;;;;;;;6.54;94.24;99367.28;5046022;28;20025;-68
2021/10/22 07:48:38;;;;;;;20.35;7.97;;;;;;;6.42;95.53;99361.94;5045985;28;20025;-68
2021/10/22 07:51:04;;;;;;;21.20;7.13;;;;;;;6.25;94.78;99367.06;5045970;28;20095;-68
2021/10/22 07:53:30;;;;;;;19.75;7.15;;;;;;;6.21;94.82;99369.63;5045987;28;20329;-68
2021/10/22 07:55:55;;;;;;;19.08;7.82;;;;;;;6.16;96.05;99369.56;5045272;28;20033;-68
2021/10/22 07:58:21;;;;;;;18.92;7.35;;;;;;;6.47;96.07;99370.72;5045517;28;20263;-68
2021/10/22 08:00:46;;;;;;;20.58;7.80;;;;;;;6.19;96.14;99374.84;5045794;28;20296;-68
2021/10/22 08:03:12;;;;;;;19.45;6.95;;;;;;;6.25;95.60;99379.25;5045649;28;20029;-68
2021/10/22 08:05:38;;;;;;;25.35;7.53;;;;;;;6.15;95.25;99373.06;5045706;28;20029;-68
2021/10/22 08:08:12;;;;;;;22.20;7.32;;;;;;;6.21;95.03;99383.53;5045667;28;20088;-68
2021/10/22 08:10:38;;;;;;;27.65;7.32;;;;;;;6.21;94.87;99387.91;5045618;28;20025;-68
2021/10/22 08:13:09;;;;;;;18.27;7.95;;;;;;;6.28;94.70;99392.34;5045552;28;20037;-68
2021/10/22 08:15:35;;;;;;;19.42;7.22;;;;;;;6.23;95.04;99386.19;5045553;28;20368;-68
2021/10/22 08:18:01;;;;;;;19.98;8.93;;;;;;;6.36;95.27;99386.31;5044051;28;20037;-68
2021/10/22 08:20:27;;;;;;;22.15;9.38;;;;;;;6.41;94.78;99394.19;5045362;28;20256;-68
2021/10/22 08:22:53;;;;;;;23.05;9.63;;;;;;;6.56;94.79;99394.34;5045402;28;20059;-68
2021/10/22 08:25:21;;;;;;;19.90;8.65;;;;;;;6.62;95.51;99402.25;5045317;28;20021;-68
2021/10/22 08:27:49;;;;;;;20.70;9.52;;;;;;;6.64;94.98;99405.72;5045256;28;20017;-68
2021/10/22 08:30:20;;;;;;;29.85;10.40;;;;;;;6.74;94.60;99407.56;5045173;28;20032;-68
2021/10/22 08:32:50;;;;;;;31.00;10.45;;;;;;;8.20;91.65;99417.06;5044023;28;20079;-68
2021/10/22 08:35:17;;;;;;;22.98;9.38;;;;;;;8.54;88.81;99408.41;5045131;28;20034;-68
2021/10/22 08:37:42;;;;;;;21.35;9.57;;;;;;;8.61;87.31;99399.66;5045057;28;20088;-68
2021/10/22 08:40:08;;;;;;;21.25;8.73;;;;;;;8.55;87.69;99394.41;5044921;28;20032;-68
2021/10/22 08:42:34;;;;;;;18.17;7.97;;;;;;;9.13;86.45;99399.66;5044966;28;20100;-68
2021/10/22 08:44:59;;;;;;;23.73;8.60;;;;;;;9.80;83.85;99396.84;5044917;28;20029;-68
2021/10/22 08:47:29;;;;;;;18.70;7.32;;;;;;;10.27;80.47;99399.25;5044851;28;20314;-68
2021/10/22 08:50:00;;;;;;;16.48;6.45;;;;;;;10.87;79.05;99414.63;5044851;28;20024;-68
2021/10/22 08:52:26;;;;;;;13.25;5.43;;;;;;;11.88;75.75;99410.97;5044801;28;20213;-68
2021/10/22 08:54:53;;;;;;;16.80;5.40;;;;;;;11.29;74.26;99403.69;5044709;28;20017;-68
2021/10/22 08:57:18;;;;;;;14.68;4.53;;;;;;;11.21;74.88;99397.63;5044666;28;20063;-68
2021/10/22 08:59:43;;;;;;;12.93;5.07;;;;;;;10.73;76.32;99382.25;5044580;28;20013;-68
2021/10/22 09:02:17;;;;;;;16.05;5.22;;;;;;;10.52;78.17;99387.69;5044516;28;20083;-68
2021/10/22 09:04:45;;;;;;;16.98;4.88;;;;;;;9.85;79.08;99367.88;5044615;28;20025;-68
2021/10/22 09:07:12;;;;;;;21.10;6.03;;;;;;;10.54;79.47;99385.94;5044402;28;20032;-68
2021/10/22 09:09:37;;;;;;;11.45;4.60;;;;;;;11.37;77.80;99388.69;5044474;28;20085;-68
2021/10/22 09:12:03;;;;;;;16.40;5.65;;;;;;;11.69;75.87;99383.94;5044460;28;20087;-68
2021/10/22 09:14:29;;;;;;;19.00;5.78;;;;;;;10.96;79.48;99377.66;5044395;28;20375;-68
2021/10/22 09:16:55;;;;;;;19.48;5.80;;;;;;;11.31;77.37;99385.22;5043085;28;20041;-68
2021/10/22 09:19:41;;;;;;;18.80;5.28;;;;;;;11.88;74.84;99380.19;5044309;28;20078;-68
2021/10/22 09:22:21;;;;;;;23.08;6.43;;;;;;;12.11;73.75;99388.66;5044335;28;20029;-68
2021/10/22 09:24:58;;;;;;;18.30;4.97;;;;;;;12.85;72.15;99392.84;5044301;28;20026;-68
2021/10/22 09:27:35;;;;;;;15.90;5.18;;;;;;;12.82;72.31;99393.75;5044232;28;20040;-68
2021/10/22 09:30:07;;;;;;;12.45;4.88;;;;;;;13.00;70.42;99388.19;5044189;28;20072;-68
2021/10/22 09:32:33;;;;;;;15.52;5.20;;;;;;;13.08;69.91;99403.94;5043027;28;20021;-68
2021/10/22 09:34:58;;;;;;;19.08;5.85;;;;;;;13.40;70.02;99396.28;5044075;28;20033;-68
2021/10/22 09:37:38;;;;;;;19.10;5.97;;;;;;;13.55;68.84;99397.78;5044066;28;20252;-68
2021/10/22 09:40:04;;;;;;;20.65;5.18;;;;;;;13.57;68.80;99398.63;5044014;28;20053;-68
2021/10/22 09:42:30;;;;;;;22.08;6.45;;;;;;;13.11;69.83;99387.13;5043964;28;20092;-68
2021/10/22 09:44:55;;;;;;;14.85;5.18;;;;;;;13.09;70.37;99383.66;5043974;28;20030;-68
2021/10/22 09:47:21;;;;;;;24.65;6.10;;;;;;;12.92;71.04;99382.13;5043970;28;20029;-68
2021/10/22 09:49:53;;;;;;;17.83;5.93;;;;;;;12.70;72.93;99386.03;5043964;28;20018;-68
2021/10/22 09:52:28;;;;;;;22.42;5.90;;;;;;;12.59;70.46;99389.72;5042791;28;20022;-68
2021/10/22 09:55:03;;;;;;;21.15;6.95;;;;;;;12.57;72.90;99389.75;5043917;28;20436;-68
2021/10/22 09:57:28;;;;;;;27.30;5.75;;;;;;;12.96;70.67;99389.13;5043854;28;20025;-68
2021/10/22 10:00:08;;;;;;;17.42;4.68;;;;;;;12.91;70.81;99395.38;5043727;28;20109;-68
2021/10/22 10:02:37;;;;;;;25.63;5.88;;;;;;;12.88;72.44;99391.00;5043774;28;20071;-68
2021/10/22 10:05:08;;;;;;;18.48;4.80;;;;;;;12.72;71.76;99396.59;5043810;28;20343;-68
2021/10/22 10:07:37;;;;;;;18.52;4.45;;;;;;;12.10;73.31;99392.22;5043781;28;20022;-68
2021/10/22 10:10:03;;;;;;;20.88;4.93;;;;;;;11.49;75.02;99375.38;5043639;28;20025;-68
2021/10/22 10:12:29;;;;;;;24.40;5.53;;;;;;;11.57;75.50;99388.44;5043742;28;20028;-68
2021/10/22 10:14:54;;;;;;;15.95;5.15;;;;;;;11.49;74.86;99393.81;5043706;28;20021;-68
2021/10/22 10:17:20;;;;;;;15.57;5.00;;;;;;;12.00;73.86;99390.59;5043496;28;20045;-68
2021/10/22 10:19:50;;;;;;;18.23;4.55;;;;;;;12.43;72.59;99401.41;5044636;28;20316;-68
2021/10/22 10:22:19;;;;;;;22.15;4.90;;;;;;;12.57;71.79;99394.16;5047968;28;20225;-68
2021/10/22 10:24:57;;;;;;;19.33;6.50;;;;;;;12.86;71.32;99400.75;5047615;28;20076;-68
2021/10/22 10:27:24;;;;;;;17.40;4.85;;;;;;;12.99;70.42;99397.03;5047558;28;20021;-68
2021/10/22 10:29:58;;;;;;;18.77;4.93;;;;;;;12.80;70.54;99392.91;5047487;28;20334;-68
2021/10/22 10:32:30;;;;;;;15.07;4.15;;;;;;;12.31;72.01;99389.25;5050935;28;20194;-69
2021/10/22 10:35:00;;;;;;;19.17;4.03;;;;;;;11.93;73.07;99373.06;5056245;28;20205;-68
2021/10/22 10:37:32;;;;;;;16.95;4.60;;;;;;;12.38;71.49;99390.06;5053819;28;20495;-68
2021/10/22 10:40:05;;;;;;;24.08;4.40;;;;;;;12.63;72.02;99400.22;5051354;28;20017;-68
2021/10/22 10:42:37;;;;;;;20.50;4.50;;;;;;;12.66;70.30;99399.31;5060315;28;20041;-68
2021/10/22 10:45:20;;;;;;;25.10;5.78;;;;;;;12.73;72.42;99401.84;5063737;28;20025;-68
2021/10/22 10:48:10;;;;;;;18.50;4.85;;;;;;;12.79;69.84;99399.06;5060852;28;20080;-68
2021/10/22 10:50:42;;;;;;;17.95;4.22;;;;;;;12.54;69.40;99399.50;5053302;28;20021;-68
2021/10/22 10:53:08;;;;;;;;;;;;;;;12.28;71.81;99397.22;5057433;28;20041;-68
2021/10/22 10:55:40;;;;;;;16.27;3.95;;;;;;;12.34;72.07;99402.41;5066977;28;19904;-68
2021/10/22 10:58:09;;;;;;;22.75;5.05;;;;;;;12.22;71.63;99402.56;5066885;28;20112;-68
2021/10/22 11:00:40;;;;;;;27.30;6.20;;;;;;;12.07;71.84;99397.53;5065729;28;20021;-68
2021/10/22 11:03:05;;;;;;;16.90;4.28;;;;;;;12.10;71.74;99394.84;5065818;28;20024;-68
2021/10/22 11:05:47;;;;;;;20.70;4.80;;;;;;;12.50;70.00;99403.94;5065195;28;20361;-68
2021/10/22 11:08:22;;;;;;;17.25;4.13;;;;;;;12.55;70.61;99396.84;5065595;28;20051;-68
2021/10/22 11:11:09;;;;;;;18.63;5.05;;;;;;;12.01;73.12;99381.78;5066725;28;20204;-68
2021/10/22 11:13:57;;;;;;;22.17;4.65;;;;;;;11.96;72.87;99388.88;5066667;28;20037;-68
2021/10/22 11:16:22;;;;;;;22.35;5.32;;;;;;;12.16;73.15;99381.56;5062968;28;20025;-68
2021/10/22 11:18:56;;;;;;;17.25;5.57;;;;;;;12.35;72.56;99388.34;5046605;28;20026;-67
2021/10/22 11:21:23;;;;;;;24.13;5.78;;;;;;;12.40;71.86;99381.22;5046633;28;20044;-68
2021/10/22 11:23:49;;;;;;;16.65;5.35;;;;;;;12.51;73.21;99388.97;5045324;28;20241;-68
2021/10/22 11:26:19;;;;;;;26.48;6.55;;;;;;;12.27;72.30;99379.66;5047328;28;20025;-67
2021/10/22 11:28:53;;;;;;;17.90;6.05;;;;;;;12.21;72.29;99386.78;5065779;28;20023;-69
2021/10/22 11:31:49;;;;;;;24.08;6.68;;;;;;;11.68;74.67;99379.53;5064114;28;20025;-67
2021/10/22 11:34:16;;;;;;;19.38;5.95;;;;;;;11.67;74.43;99375.16;5065353;28;20024;-67